sensor_id;sensor_type;location;lat;lon;timestamp;P1;durP1;ratioP1;P2;durP2;ratioP2
819;SDS011;392;48.838;2.322;2022-08-24T00:02:07;6.07;;;5.67;;
819;SDS011;392;48.838;2.322;2022-08-24T00:04:34;6.20;;;5.80;;
819;SDS011;392;48.838;2.322;2022-08-24T00:07:02;6.13;;;5.83;;
819;SDS011;392;48.838;2.322;2022-08-24T00:09:33;5.93;;;5.63;;
819;SDS011;392;48.838;2.322;2022-08-24T00:12:01;6.50;;;5.90;;
819;SDS011;392;48.838;2.322;2022-08-24T00:14:30;5.30;;;5.10;;
819;SDS011;392;48.838;2.322;2022-08-24T00:16:57;6.37;;;5.77;;
819;SDS011;392;48.838;2.322;2022-08-24T00:19:25;6.20;;;5.80;;
819;SDS011;392;48.838;2.322;2022-08-24T00:21:53;5.03;;;4.83;;
819;SDS011;392;48.838;2.322;2022-08-24T00:24:21;5.70;;;5.30;;
819;SDS011;392;48.838;2.322;2022-08-24T00:26:49;6.00;;;5.60;;
819;SDS011;392;48.838;2.322;2022-08-24T00:29:18;5.50;;;5.20;;
819;SDS011;392;48.838;2.322;2022-08-24T00:31:47;5.40;;;5.07;;
819;SDS011;392;48.838;2.322;2022-08-24T00:34:14;5.77;;;5.50;;
819;SDS011;392;48.838;2.322;2022-08-24T00:36:43;5.63;;;5.43;;
819;SDS011;392;48.838;2.322;2022-08-24T00:39:11;5.27;;;5.00;;
819;SDS011;392;48.838;2.322;2022-08-24T00:41:39;5.80;;;5.40;;
819;SDS011;392;48.838;2.322;2022-08-24T00:44:09;6.17;;;5.87;;
819;SDS011;392;48.838;2.322;2022-08-24T00:46:41;5.10;;;4.80;;
819;SDS011;392;48.838;2.322;2022-08-24T00:49:21;5.70;;;5.50;;
819;SDS011;392;48.838;2.322;2022-08-24T00:51:54;5.47;;;5.17;;
819;SDS011;392;48.838;2.322;2022-08-24T00:54:29;5.77;;;5.50;;
819;SDS011;392;48.838;2.322;2022-08-24T00:57:02;6.00;;;5.60;;
819;SDS011;392;48.838;2.322;2022-08-24T00:59:37;5.80;;;5.50;;
819;SDS011;392;48.838;2.322;2022-08-24T01:02:11;5.07;;;4.77;;
819;SDS011;392;48.838;2.322;2022-08-24T01:04:44;5.77;;;5.47;;
819;SDS011;392;48.838;2.322;2022-08-24T01:07:17;5.13;;;4.83;;
819;SDS011;392;48.838;2.322;2022-08-24T01:09:45;5.03;;;4.83;;
819;SDS011;392;48.838;2.322;2022-08-24T01:12:12;5.13;;;4.90;;
819;SDS011;392;48.838;2.322;2022-08-24T01:14:42;5.00;;;4.70;;
819;SDS011;392;48.838;2.322;2022-08-24T01:17:10;5.20;;;5.00;;
819;SDS011;392;48.838;2.322;2022-08-24T01:19:56;5.40;;;5.10;;
819;SDS011;392;48.838;2.322;2022-08-24T01:25:19;4.70;;;4.40;;
819;SDS011;392;48.838;2.322;2022-08-24T01:27:48;4.80;;;4.60;;
819;SDS011;392;48.838;2.322;2022-08-24T01:30:17;4.83;;;4.57;;
819;SDS011;392;48.838;2.322;2022-08-24T01:32:51;4.83;;;4.63;;
819;SDS011;392;48.838;2.322;2022-08-24T01:35:20;5.70;;;5.40;;
819;SDS011;392;48.838;2.322;2022-08-24T01:37:48;4.57;;;4.33;;
819;SDS011;392;48.838;2.322;2022-08-24T01:40:16;4.60;;;4.50;;
819;SDS011;392;48.838;2.322;2022-08-24T01:42:47;4.80;;;4.57;;
819;SDS011;392;48.838;2.322;2022-08-24T01:45:16;4.50;;;4.30;;
819;SDS011;392;48.838;2.322;2022-08-24T01:47:44;4.30;;;4.20;;
819;SDS011;392;48.838;2.322;2022-08-24T01:50:12;4.70;;;4.50;;
819;SDS011;392;48.838;2.322;2022-08-24T01:52:40;5.07;;;4.87;;
819;SDS011;392;48.838;2.322;2022-08-24T01:55:09;4.70;;;4.50;;
819;SDS011;392;48.838;2.322;2022-08-24T01:57:42;5.03;;;4.73;;
819;SDS011;392;48.838;2.322;2022-08-24T02:00:11;4.90;;;4.70;;
819;SDS011;392;48.838;2.322;2022-08-24T02:02:40;5.17;;;4.67;;
819;SDS011;392;48.838;2.322;2022-08-24T02:05:09;5.00;;;4.80;;
819;SDS011;392;48.838;2.322;2022-08-24T02:07:39;5.40;;;5.20;;
819;SDS011;392;48.838;2.322;2022-08-24T02:10:08;5.00;;;4.73;;
819;SDS011;392;48.838;2.322;2022-08-24T02:12:41;5.00;;;4.70;;
819;SDS011;392;48.838;2.322;2022-08-24T02:15:22;5.00;;;4.80;;
819;SDS011;392;48.838;2.322;2022-08-24T02:17:52;5.43;;;5.00;;
819;SDS011;392;48.838;2.322;2022-08-24T02:20:21;5.03;;;4.73;;
819;SDS011;392;48.838;2.322;2022-08-24T02:22:49;4.27;;;4.07;;
819;SDS011;392;48.838;2.322;2022-08-24T02:25:18;5.10;;;4.87;;
819;SDS011;392;48.838;2.322;2022-08-24T02:27:48;4.77;;;4.57;;
819;SDS011;392;48.838;2.322;2022-08-24T02:30:16;4.73;;;4.50;;
819;SDS011;392;48.838;2.322;2022-08-24T02:32:44;5.23;;;4.97;;
819;SDS011;392;48.838;2.322;2022-08-24T02:35:11;4.97;;;4.67;;
819;SDS011;392;48.838;2.322;2022-08-24T02:37:39;4.60;;;4.30;;
819;SDS011;392;48.838;2.322;2022-08-24T02:40:06;4.80;;;4.60;;
819;SDS011;392;48.838;2.322;2022-08-24T02:42:36;5.30;;;4.90;;
819;SDS011;392;48.838;2.322;2022-08-24T02:45:05;4.37;;;4.17;;
819;SDS011;392;48.838;2.322;2022-08-24T02:47:34;4.83;;;4.53;;
819;SDS011;392;48.838;2.322;2022-08-24T02:50:04;4.57;;;4.37;;
819;SDS011;392;48.838;2.322;2022-08-24T02:52:35;4.87;;;4.50;;
819;SDS011;392;48.838;2.322;2022-08-24T02:55:04;4.40;;;4.20;;
819;SDS011;392;48.838;2.322;2022-08-24T02:57:35;4.80;;;4.60;;
819;SDS011;392;48.838;2.322;2022-08-24T03:00:06;5.50;;;5.20;;
819;SDS011;392;48.838;2.322;2022-08-24T03:02:48;4.70;;;4.50;;
819;SDS011;392;48.838;2.322;2022-08-24T03:05:16;4.80;;;4.50;;
819;SDS011;392;48.838;2.322;2022-08-24T03:07:44;4.50;;;4.30;;
819;SDS011;392;48.838;2.322;2022-08-24T03:10:12;5.03;;;4.83;;
819;SDS011;392;48.838;2.322;2022-08-24T03:12:40;4.90;;;4.50;;
819;SDS011;392;48.838;2.322;2022-08-24T03:15:10;4.87;;;4.67;;
819;SDS011;392;48.838;2.322;2022-08-24T03:17:39;4.70;;;4.50;;
819;SDS011;392;48.838;2.322;2022-08-24T03:20:09;5.13;;;4.77;;
819;SDS011;392;48.838;2.322;2022-08-24T03:22:41;5.20;;;4.90;;
819;SDS011;392;48.838;2.322;2022-08-24T03:25:09;4.50;;;4.30;;
819;SDS011;392;48.838;2.322;2022-08-24T03:27:38;5.10;;;4.60;;
819;SDS011;392;48.838;2.322;2022-08-24T03:30:07;5.40;;;5.10;;
819;SDS011;392;48.838;2.322;2022-08-24T03:32:39;5.13;;;4.93;;
819;SDS011;392;48.838;2.322;2022-08-24T03:35:07;4.33;;;4.13;;
819;SDS011;392;48.838;2.322;2022-08-24T03:37:37;5.60;;;5.40;;
819;SDS011;392;48.838;2.322;2022-08-24T03:40:05;4.90;;;4.50;;
819;SDS011;392;48.838;2.322;2022-08-24T03:42:36;7.07;;;4.43;;
819;SDS011;392;48.838;2.322;2022-08-24T03:45:04;5.07;;;4.77;;
819;SDS011;392;48.838;2.322;2022-08-24T03:47:35;5.33;;;5.03;;
819;SDS011;392;48.838;2.322;2022-08-24T03:50:02;5.13;;;4.83;;
819;SDS011;392;48.838;2.322;2022-08-24T03:52:33;5.40;;;5.03;;
819;SDS011;392;48.838;2.322;2022-08-24T03:55:01;4.33;;;4.17;;
819;SDS011;392;48.838;2.322;2022-08-24T03:57:30;6.43;;;6.03;;
819;SDS011;392;48.838;2.322;2022-08-24T03:59:59;11.53;;;5.80;;
819;SDS011;392;48.838;2.322;2022-08-24T04:02:29;5.77;;;5.37;;
819;SDS011;392;48.838;2.322;2022-08-24T04:04:59;5.60;;;5.30;;
819;SDS011;392;48.838;2.322;2022-08-24T04:07:27;6.07;;;5.57;;
819;SDS011;392;48.838;2.322;2022-08-24T04:09:55;5.70;;;5.40;;
819;SDS011;392;48.838;2.322;2022-08-24T04:12:23;5.87;;;5.40;;
819;SDS011;392;48.838;2.322;2022-08-24T04:14:50;5.80;;;5.43;;
819;SDS011;392;48.838;2.322;2022-08-24T04:17:20;6.00;;;5.50;;
819;SDS011;392;48.838;2.322;2022-08-24T04:19:48;5.30;;;5.10;;
819;SDS011;392;48.838;2.322;2022-08-24T04:22:26;5.87;;;5.37;;
819;SDS011;392;48.838;2.322;2022-08-24T04:24:56;5.77;;;5.37;;
819;SDS011;392;48.838;2.322;2022-08-24T04:27:26;5.90;;;5.47;;
819;SDS011;392;48.838;2.322;2022-08-24T04:29:54;6.40;;;5.90;;
819;SDS011;392;48.838;2.322;2022-08-24T04:32:24;7.33;;;6.73;;
819;SDS011;392;48.838;2.322;2022-08-24T04:34:53;7.77;;;7.07;;
819;SDS011;392;48.838;2.322;2022-08-24T04:37:21;7.60;;;6.90;;
819;SDS011;392;48.838;2.322;2022-08-24T04:39:50;7.23;;;6.77;;
819;SDS011;392;48.838;2.322;2022-08-24T04:42:21;6.97;;;6.47;;
819;SDS011;392;48.838;2.322;2022-08-24T04:44:50;7.23;;;6.73;;
819;SDS011;392;48.838;2.322;2022-08-24T04:47:20;7.20;;;6.73;;
819;SDS011;392;48.838;2.322;2022-08-24T04:49:48;7.83;;;7.23;;
819;SDS011;392;48.838;2.322;2022-08-24T04:52:15;8.17;;;7.57;;
819;SDS011;392;48.838;2.322;2022-08-24T04:54:43;8.60;;;7.93;;
819;SDS011;392;48.838;2.322;2022-08-24T04:57:19;8.50;;;7.80;;
819;SDS011;392;48.838;2.322;2022-08-24T04:59:47;7.50;;;6.97;;
819;SDS011;392;48.838;2.322;2022-08-24T05:02:14;8.20;;;7.40;;
819;SDS011;392;48.838;2.322;2022-08-24T05:04:45;9.30;;;7.17;;
819;SDS011;392;48.838;2.322;2022-08-24T05:07:12;7.20;;;6.63;;
819;SDS011;392;48.838;2.322;2022-08-24T05:09:42;8.07;;;7.23;;
819;SDS011;392;48.838;2.322;2022-08-24T05:12:09;7.90;;;7.17;;
819;SDS011;392;48.838;2.322;2022-08-24T05:14:42;6.90;;;6.50;;
819;SDS011;392;48.838;2.322;2022-08-24T05:17:09;7.50;;;7.00;;
819;SDS011;392;48.838;2.322;2022-08-24T05:19:37;6.73;;;6.33;;
819;SDS011;392;48.838;2.322;2022-08-24T05:22:04;7.10;;;6.50;;
819;SDS011;392;48.838;2.322;2022-08-24T05:24:32;7.30;;;6.90;;
819;SDS011;392;48.838;2.322;2022-08-24T05:27:00;7.30;;;6.70;;
819;SDS011;392;48.838;2.322;2022-08-24T05:29:28;8.03;;;7.43;;
819;SDS011;392;48.838;2.322;2022-08-24T05:31:59;7.10;;;6.60;;
819;SDS011;392;48.838;2.322;2022-08-24T05:34:26;6.97;;;6.47;;
819;SDS011;392;48.838;2.322;2022-08-24T05:36:54;7.67;;;6.70;;
819;SDS011;392;48.838;2.322;2022-08-24T05:39:43;8.43;;;7.33;;
819;SDS011;392;48.838;2.322;2022-08-24T05:42:11;6.70;;;6.20;;
819;SDS011;392;48.838;2.322;2022-08-24T05:44:44;7.30;;;6.80;;
819;SDS011;392;48.838;2.322;2022-08-24T05:47:15;7.57;;;7.00;;
819;SDS011;392;48.838;2.322;2022-08-24T05:49:43;7.33;;;6.47;;
819;SDS011;392;48.838;2.322;2022-08-24T05:52:10;7.57;;;6.90;;
819;SDS011;392;48.838;2.322;2022-08-24T05:54:38;6.90;;;6.20;;
819;SDS011;392;48.838;2.322;2022-08-24T05:57:05;6.63;;;6.23;;
819;SDS011;392;48.838;2.322;2022-08-24T05:59:38;6.43;;;6.03;;
819;SDS011;392;48.838;2.322;2022-08-24T06:02:12;6.87;;;6.20;;
819;SDS011;392;48.838;2.322;2022-08-24T06:04:41;7.10;;;6.63;;
819;SDS011;392;48.838;2.322;2022-08-24T06:07:09;6.90;;;6.40;;
819;SDS011;392;48.838;2.322;2022-08-24T06:09:41;5.83;;;5.37;;
819;SDS011;392;48.838;2.322;2022-08-24T06:12:10;6.10;;;5.70;;
819;SDS011;392;48.838;2.322;2022-08-24T06:14:39;7.37;;;6.70;;
819;SDS011;392;48.838;2.322;2022-08-24T06:17:11;5.40;;;5.10;;
819;SDS011;392;48.838;2.322;2022-08-24T06:19:40;7.23;;;6.63;;
819;SDS011;392;48.838;2.322;2022-08-24T06:22:08;9.90;;;6.87;;
819;SDS011;392;48.838;2.322;2022-08-24T06:24:37;7.57;;;7.07;;
819;SDS011;392;48.838;2.322;2022-08-24T06:27:22;7.77;;;7.00;;
819;SDS011;392;48.838;2.322;2022-08-24T06:29:56;8.63;;;6.77;;
819;SDS011;392;48.838;2.322;2022-08-24T06:32:46;7.33;;;6.73;;
819;SDS011;392;48.838;2.322;2022-08-24T06:35:26;7.47;;;7.07;;
819;SDS011;392;48.838;2.322;2022-08-24T06:37:54;6.90;;;6.30;;
819;SDS011;392;48.838;2.322;2022-08-24T06:40:22;6.77;;;6.33;;
819;SDS011;392;48.838;2.322;2022-08-24T06:42:50;7.47;;;6.90;;
819;SDS011;392;48.838;2.322;2022-08-24T06:45:31;7.33;;;6.70;;
819;SDS011;392;48.838;2.322;2022-08-24T06:47:59;6.83;;;6.30;;
819;SDS011;392;48.838;2.322;2022-08-24T06:50:28;6.63;;;6.23;;
819;SDS011;392;48.838;2.322;2022-08-24T06:52:55;12.87;;;11.77;;
819;SDS011;392;48.838;2.322;2022-08-24T06:55:24;40.27;;;37.07;;
819;SDS011;392;48.838;2.322;2022-08-24T06:57:51;7.77;;;7.23;;
819;SDS011;392;48.838;2.322;2022-08-24T07:00:19;7.47;;;6.97;;
819;SDS011;392;48.838;2.322;2022-08-24T07:02:48;6.80;;;6.40;;
819;SDS011;392;48.838;2.322;2022-08-24T07:05:16;7.63;;;7.10;;
819;SDS011;392;48.838;2.322;2022-08-24T07:08:03;6.90;;;6.53;;
819;SDS011;392;48.838;2.322;2022-08-24T07:10:32;5.90;;;5.60;;
819;SDS011;392;48.838;2.322;2022-08-24T07:13:00;6.40;;;6.10;;
819;SDS011;392;48.838;2.322;2022-08-24T07:15:28;6.47;;;6.07;;
819;SDS011;392;48.838;2.322;2022-08-24T07:18:05;6.47;;;5.87;;
819;SDS011;392;48.838;2.322;2022-08-24T07:20:38;5.90;;;5.60;;
819;SDS011;392;48.838;2.322;2022-08-24T07:23:15;7.37;;;6.60;;
819;SDS011;392;48.838;2.322;2022-08-24T07:25:44;6.47;;;6.17;;
819;SDS011;392;48.838;2.322;2022-08-24T07:28:13;6.70;;;6.30;;
819;SDS011;392;48.838;2.322;2022-08-24T07:30:42;6.80;;;6.40;;
819;SDS011;392;48.838;2.322;2022-08-24T07:33:11;8.57;;;8.07;;
819;SDS011;392;48.838;2.322;2022-08-24T07:35:39;8.33;;;7.90;;
819;SDS011;392;48.838;2.322;2022-08-24T07:38:07;7.77;;;7.30;;
819;SDS011;392;48.838;2.322;2022-08-24T07:40:38;8.63;;;8.03;;
819;SDS011;392;48.838;2.322;2022-08-24T07:43:06;9.00;;;8.50;;
819;SDS011;392;48.838;2.322;2022-08-24T07:45:33;8.67;;;8.37;;
819;SDS011;392;48.838;2.322;2022-08-24T07:48:01;8.80;;;8.30;;
819;SDS011;392;48.838;2.322;2022-08-24T07:50:39;8.13;;;7.80;;
819;SDS011;392;48.838;2.322;2022-08-24T07:53:07;8.33;;;8.03;;
819;SDS011;392;48.838;2.322;2022-08-24T07:55:35;8.63;;;8.23;;
819;SDS011;392;48.838;2.322;2022-08-24T07:58:04;7.97;;;7.40;;
819;SDS011;392;48.838;2.322;2022-08-24T08:00:31;7.80;;;7.50;;
819;SDS011;392;48.838;2.322;2022-08-24T08:03:01;8.30;;;8.00;;
819;SDS011;392;48.838;2.322;2022-08-24T08:05:31;8.60;;;8.20;;
819;SDS011;392;48.838;2.322;2022-08-24T08:08:04;9.00;;;8.67;;
819;SDS011;392;48.838;2.322;2022-08-24T08:10:32;9.40;;;8.90;;
819;SDS011;392;48.838;2.322;2022-08-24T08:13:00;9.23;;;8.93;;
819;SDS011;392;48.838;2.322;2022-08-24T08:15:31;10.27;;;9.80;;
819;SDS011;392;48.838;2.322;2022-08-24T08:18:03;11.53;;;11.03;;
819;SDS011;392;48.838;2.322;2022-08-24T08:20:33;12.47;;;11.97;;
819;SDS011;392;48.838;2.322;2022-08-24T08:23:03;11.60;;;11.20;;
819;SDS011;392;48.838;2.322;2022-08-24T08:26:03;12.97;;;12.40;;
819;SDS011;392;48.838;2.322;2022-08-24T08:28:54;11.90;;;11.13;;
819;SDS011;392;48.838;2.322;2022-08-24T08:31:21;12.77;;;12.37;;
819;SDS011;392;48.838;2.322;2022-08-24T08:33:49;12.90;;;12.27;;
819;SDS011;392;48.838;2.322;2022-08-24T08:36:17;14.60;;;14.00;;
819;SDS011;392;48.838;2.322;2022-08-24T08:38:49;15.67;;;15.17;;
819;SDS011;392;48.838;2.322;2022-08-24T08:41:21;16.17;;;15.70;;
819;SDS011;392;48.838;2.322;2022-08-24T08:44:49;15.60;;;15.10;;
819;SDS011;392;48.838;2.322;2022-08-24T08:50:43;14.50;;;14.10;;
819;SDS011;392;48.838;2.322;2022-08-24T08:56:39;18.93;;;18.33;;
819;SDS011;392;48.838;2.322;2022-08-24T08:59:29;19.43;;;18.73;;
819;SDS011;392;48.838;2.322;2022-08-24T09:02:32;21.70;;;21.10;;
819;SDS011;392;48.838;2.322;2022-08-24T09:05:39;24.20;;;23.50;;
819;SDS011;392;48.838;2.322;2022-08-24T09:08:49;22.27;;;21.57;;
819;SDS011;392;48.838;2.322;2022-08-24T09:11:49;19.47;;;18.97;;
819;SDS011;392;48.838;2.322;2022-08-24T09:17:47;18.73;;;18.23;;
819;SDS011;392;48.838;2.322;2022-08-24T09:20:32;17.00;;;16.53;;
819;SDS011;392;48.838;2.322;2022-08-24T09:23:18;15.13;;;14.63;;
819;SDS011;392;48.838;2.322;2022-08-24T09:25:55;16.60;;;16.00;;
819;SDS011;392;48.838;2.322;2022-08-24T09:28:34;15.67;;;15.27;;
819;SDS011;392;48.838;2.322;2022-08-24T09:34:14;17.67;;;16.90;;
819;SDS011;392;48.838;2.322;2022-08-24T09:36:51;18.03;;;17.33;;
819;SDS011;392;48.838;2.322;2022-08-24T09:39:33;16.30;;;15.87;;
819;SDS011;392;48.838;2.322;2022-08-24T09:42:28;17.93;;;17.43;;
819;SDS011;392;48.838;2.322;2022-08-24T09:45:32;19.10;;;18.53;;
819;SDS011;392;48.838;2.322;2022-08-24T09:48:44;23.33;;;22.53;;
819;SDS011;392;48.838;2.322;2022-08-24T09:55:07;25.40;;;24.63;;
819;SDS011;392;48.838;2.322;2022-08-24T09:58:11;25.70;;;25.10;;
819;SDS011;392;48.838;2.322;2022-08-24T10:00:45;24.63;;;23.73;;
819;SDS011;392;48.838;2.322;2022-08-24T10:03:20;22.97;;;22.27;;
819;SDS011;392;48.838;2.322;2022-08-24T10:05:58;23.57;;;22.97;;
819;SDS011;392;48.838;2.322;2022-08-24T10:08:50;27.43;;;26.40;;
819;SDS011;392;48.838;2.322;2022-08-24T10:11:32;27.27;;;26.57;;
819;SDS011;392;48.838;2.322;2022-08-24T10:14:12;29.90;;;29.10;;
819;SDS011;392;48.838;2.322;2022-08-24T10:16:53;32.80;;;31.70;;
819;SDS011;392;48.838;2.322;2022-08-24T10:19:37;29.80;;;28.90;;
819;SDS011;392;48.838;2.322;2022-08-24T10:22:20;37.57;;;36.57;;
819;SDS011;392;48.838;2.322;2022-08-24T10:25:06;33.40;;;32.40;;
819;SDS011;392;48.838;2.322;2022-08-24T10:27:52;34.73;;;33.83;;
819;SDS011;392;48.838;2.322;2022-08-24T10:33:27;24.80;;;24.20;;
819;SDS011;392;48.838;2.322;2022-08-24T10:36:04;28.83;;;28.10;;
819;SDS011;392;48.838;2.322;2022-08-24T10:38:49;31.73;;;30.63;;
819;SDS011;392;48.838;2.322;2022-08-24T10:49:03;24.90;;;24.30;;
819;SDS011;392;48.838;2.322;2022-08-24T10:55:29;28.33;;;27.47;;
819;SDS011;392;48.838;2.322;2022-08-24T10:58:09;30.10;;;29.30;;
819;SDS011;392;48.838;2.322;2022-08-24T11:03:54;32.70;;;31.80;;
819;SDS011;392;48.838;2.322;2022-08-24T11:06:27;30.00;;;29.00;;
819;SDS011;392;48.838;2.322;2022-08-24T11:08:58;30.70;;;29.90;;
819;SDS011;392;48.838;2.322;2022-08-24T11:11:33;21.00;;;20.40;;
819;SDS011;392;48.838;2.322;2022-08-24T11:14:03;22.40;;;21.50;;
819;SDS011;392;48.838;2.322;2022-08-24T11:16:35;25.10;;;24.50;;
819;SDS011;392;48.838;2.322;2022-08-24T11:19:06;26.50;;;25.80;;
819;SDS011;392;48.838;2.322;2022-08-24T11:21:40;28.37;;;27.47;;
819;SDS011;392;48.838;2.322;2022-08-24T11:24:25;30.03;;;29.13;;
819;SDS011;392;48.838;2.322;2022-08-24T11:27:05;37.80;;;36.80;;
819;SDS011;392;48.838;2.322;2022-08-24T11:29:54;38.27;;;37.27;;
819;SDS011;392;48.838;2.322;2022-08-24T11:32:31;30.07;;;29.27;;
819;SDS011;392;48.838;2.322;2022-08-24T11:35:07;27.57;;;26.77;;
819;SDS011;392;48.838;2.322;2022-08-24T11:37:46;27.97;;;27.03;;
819;SDS011;392;48.838;2.322;2022-08-24T11:40:17;26.40;;;25.50;;
819;SDS011;392;48.838;2.322;2022-08-24T11:42:55;25.93;;;25.33;;
819;SDS011;392;48.838;2.322;2022-08-24T11:45:49;25.27;;;24.67;;
819;SDS011;392;48.838;2.322;2022-08-24T11:48:35;29.53;;;28.73;;
819;SDS011;392;48.838;2.322;2022-08-24T11:51:16;29.50;;;28.50;;
819;SDS011;392;48.838;2.322;2022-08-24T11:53:57;27.50;;;26.80;;
819;SDS011;392;48.838;2.322;2022-08-24T11:56:33;25.03;;;24.30;;
819;SDS011;392;48.838;2.322;2022-08-24T11:59:09;24.40;;;23.80;;
819;SDS011;392;48.838;2.322;2022-08-24T12:01:47;25.97;;;25.20;;
819;SDS011;392;48.838;2.322;2022-08-24T12:04:22;20.87;;;20.30;;
819;SDS011;392;48.838;2.322;2022-08-24T12:07:05;13.77;;;13.37;;
819;SDS011;392;48.838;2.322;2022-08-24T12:12:45;9.23;;;9.00;;
819;SDS011;392;48.838;2.322;2022-08-24T12:15:21;9.77;;;9.47;;
819;SDS011;392;48.838;2.322;2022-08-24T12:18:12;10.83;;;10.63;;
819;SDS011;392;48.838;2.322;2022-08-24T12:20:49;12.60;;;12.30;;
819;SDS011;392;48.838;2.322;2022-08-24T12:23:19;13.63;;;13.33;;
819;SDS011;392;48.838;2.322;2022-08-24T12:25:56;11.30;;;11.00;;
819;SDS011;392;48.838;2.322;2022-08-24T12:28:30;12.80;;;12.50;;
819;SDS011;392;48.838;2.322;2022-08-24T12:31:07;15.47;;;15.17;;
819;SDS011;392;48.838;2.322;2022-08-24T12:33:42;14.80;;;14.07;;
819;SDS011;392;48.838;2.322;2022-08-24T12:36:17;15.13;;;14.73;;
819;SDS011;392;48.838;2.322;2022-08-24T12:38:57;14.30;;;13.87;;
819;SDS011;392;48.838;2.322;2022-08-24T12:41:35;14.73;;;14.23;;
819;SDS011;392;48.838;2.322;2022-08-24T12:44:11;15.50;;;15.00;;
819;SDS011;392;48.838;2.322;2022-08-24T12:46:43;15.20;;;14.77;;
819;SDS011;392;48.838;2.322;2022-08-24T12:49:20;16.80;;;16.40;;
819;SDS011;392;48.838;2.322;2022-08-24T12:51:57;17.10;;;16.70;;
819;SDS011;392;48.838;2.322;2022-08-24T12:54:52;16.77;;;16.37;;
819;SDS011;392;48.838;2.322;2022-08-24T12:57:44;15.80;;;15.40;;
819;SDS011;392;48.838;2.322;2022-08-24T13:00:27;17.30;;;16.90;;
819;SDS011;392;48.838;2.322;2022-08-24T13:03:03;18.47;;;17.80;;
819;SDS011;392;48.838;2.322;2022-08-24T13:05:38;14.47;;;14.17;;
819;SDS011;392;48.838;2.322;2022-08-24T13:08:09;15.67;;;15.27;;
819;SDS011;392;48.838;2.322;2022-08-24T13:10:41;14.63;;;14.33;;
819;SDS011;392;48.838;2.322;2022-08-24T13:13:13;16.40;;;15.90;;
819;SDS011;392;48.838;2.322;2022-08-24T13:15:54;13.83;;;13.43;;
819;SDS011;392;48.838;2.322;2022-08-24T13:21:41;13.67;;;13.30;;
819;SDS011;392;48.838;2.322;2022-08-24T13:33:30;11.23;;;10.93;;
819;SDS011;392;48.838;2.322;2022-08-24T13:36:08;11.07;;;10.87;;
819;SDS011;392;48.838;2.322;2022-08-24T13:42:29;10.20;;;10.00;;
819;SDS011;392;48.838;2.322;2022-08-24T13:45:30;9.40;;;9.20;;
819;SDS011;392;48.838;2.322;2022-08-24T13:48:12;9.00;;;8.70;;
819;SDS011;392;48.838;2.322;2022-08-24T13:51:24;8.40;;;8.20;;
819;SDS011;392;48.838;2.322;2022-08-24T13:54:17;8.63;;;8.43;;
819;SDS011;392;48.838;2.322;2022-08-24T13:57:02;8.30;;;8.10;;
819;SDS011;392;48.838;2.322;2022-08-24T13:59:57;8.40;;;8.10;;
819;SDS011;392;48.838;2.322;2022-08-24T14:02:41;7.87;;;7.67;;
819;SDS011;392;48.838;2.322;2022-08-24T14:05:26;7.13;;;7.03;;
819;SDS011;392;48.838;2.322;2022-08-24T14:08:06;5.73;;;5.63;;
819;SDS011;392;48.838;2.322;2022-08-24T14:10:51;6.07;;;5.77;;
819;SDS011;392;48.838;2.322;2022-08-24T14:13:40;5.60;;;5.50;;
819;SDS011;392;48.838;2.322;2022-08-24T14:16:27;5.13;;;4.93;;
819;SDS011;392;48.838;2.322;2022-08-24T14:19:29;5.60;;;5.40;;
819;SDS011;392;48.838;2.322;2022-08-24T14:22:13;5.50;;;5.40;;
819;SDS011;392;48.838;2.322;2022-08-24T14:24:58;5.57;;;5.33;;
819;SDS011;392;48.838;2.322;2022-08-24T14:27:42;4.53;;;4.33;;
819;SDS011;392;48.838;2.322;2022-08-24T14:33:21;4.70;;;4.60;;
819;SDS011;392;48.838;2.322;2022-08-24T14:36:09;3.80;;;3.80;;
819;SDS011;392;48.838;2.322;2022-08-24T14:38:45;4.17;;;4.07;;
819;SDS011;392;48.838;2.322;2022-08-24T14:41:41;3.90;;;3.80;;
819;SDS011;392;48.838;2.322;2022-08-24T14:44:37;4.10;;;4.10;;
819;SDS011;392;48.838;2.322;2022-08-24T14:47:30;3.83;;;3.73;;
819;SDS011;392;48.838;2.322;2022-08-24T14:50:11;3.63;;;3.53;;
819;SDS011;392;48.838;2.322;2022-08-24T14:52:50;4.07;;;3.97;;
819;SDS011;392;48.838;2.322;2022-08-24T14:55:33;3.53;;;3.43;;
819;SDS011;392;48.838;2.322;2022-08-24T14:58:11;3.47;;;3.47;;
819;SDS011;392;48.838;2.322;2022-08-24T15:01:02;4.10;;;4.00;;
819;SDS011;392;48.838;2.322;2022-08-24T15:03:51;3.60;;;3.60;;
819;SDS011;392;48.838;2.322;2022-08-24T15:07:06;4.07;;;3.97;;
819;SDS011;392;48.838;2.322;2022-08-24T15:09:53;3.73;;;3.63;;
819;SDS011;392;48.838;2.322;2022-08-24T15:12:28;3.57;;;3.43;;
819;SDS011;392;48.838;2.322;2022-08-24T15:15:08;4.07;;;4.07;;
819;SDS011;392;48.838;2.322;2022-08-24T15:17:50;3.90;;;3.90;;
819;SDS011;392;48.838;2.322;2022-08-24T15:20:31;4.20;;;4.10;;
819;SDS011;392;48.838;2.322;2022-08-24T15:23:22;3.80;;;3.80;;
819;SDS011;392;48.838;2.322;2022-08-24T15:26:15;3.43;;;3.43;;
819;SDS011;392;48.838;2.322;2022-08-24T15:28:51;4.23;;;4.10;;
819;SDS011;392;48.838;2.322;2022-08-24T15:31:23;4.13;;;4.13;;
819;SDS011;392;48.838;2.322;2022-08-24T15:33:53;4.90;;;4.80;;
819;SDS011;392;48.838;2.322;2022-08-24T15:36:23;4.30;;;4.30;;
819;SDS011;392;48.838;2.322;2022-08-24T15:38:54;4.70;;;4.60;;
819;SDS011;392;48.838;2.322;2022-08-24T15:41:23;4.10;;;4.00;;
819;SDS011;392;48.838;2.322;2022-08-24T15:43:56;4.17;;;4.07;;
819;SDS011;392;48.838;2.322;2022-08-24T15:46:28;4.40;;;4.30;;
819;SDS011;392;48.838;2.322;2022-08-24T15:49:01;4.17;;;4.07;;
819;SDS011;392;48.838;2.322;2022-08-24T15:51:42;3.70;;;3.70;;
819;SDS011;392;48.838;2.322;2022-08-24T15:54:16;4.30;;;4.10;;
819;SDS011;392;48.838;2.322;2022-08-24T15:56:59;4.13;;;4.07;;
819;SDS011;392;48.838;2.322;2022-08-24T15:59:30;3.70;;;3.70;;
819;SDS011;392;48.838;2.322;2022-08-24T16:02:25;3.73;;;3.73;;
819;SDS011;392;48.838;2.322;2022-08-24T16:05:09;4.00;;;3.90;;
819;SDS011;392;48.838;2.322;2022-08-24T16:08:03;4.27;;;4.17;;
819;SDS011;392;48.838;2.322;2022-08-24T16:10:38;3.40;;;3.40;;
819;SDS011;392;48.838;2.322;2022-08-24T16:13:09;3.83;;;3.83;;
819;SDS011;392;48.838;2.322;2022-08-24T16:15:47;4.00;;;3.90;;
819;SDS011;392;48.838;2.322;2022-08-24T16:18:18;3.40;;;3.40;;
819;SDS011;392;48.838;2.322;2022-08-24T16:20:46;4.03;;;3.73;;
819;SDS011;392;48.838;2.322;2022-08-24T16:23:20;3.70;;;3.60;;
819;SDS011;392;48.838;2.322;2022-08-24T16:26:16;3.60;;;3.50;;
819;SDS011;392;48.838;2.322;2022-08-24T16:28:49;3.30;;;3.30;;
819;SDS011;392;48.838;2.322;2022-08-24T16:34:26;4.17;;;4.07;;
819;SDS011;392;48.838;2.322;2022-08-24T16:36:57;3.90;;;3.80;;
819;SDS011;392;48.838;2.322;2022-08-24T16:39:25;4.23;;;4.03;;
819;SDS011;392;48.838;2.322;2022-08-24T16:41:56;4.13;;;4.03;;
819;SDS011;392;48.838;2.322;2022-08-24T16:44:27;4.40;;;4.30;;
819;SDS011;392;48.838;2.322;2022-08-24T16:46:59;5.97;;;5.50;;
819;SDS011;392;48.838;2.322;2022-08-24T16:49:29;4.40;;;4.30;;
819;SDS011;392;48.838;2.322;2022-08-24T16:51:57;4.20;;;4.10;;
819;SDS011;392;48.838;2.322;2022-08-24T16:54:24;4.80;;;4.70;;
819;SDS011;392;48.838;2.322;2022-08-24T16:56:52;4.20;;;4.10;;
819;SDS011;392;48.838;2.322;2022-08-24T16:59:22;4.27;;;4.17;;
819;SDS011;392;48.838;2.322;2022-08-24T17:01:53;3.70;;;3.60;;
819;SDS011;392;48.838;2.322;2022-08-24T17:04:20;4.43;;;4.33;;
819;SDS011;392;48.838;2.322;2022-08-24T17:06:49;4.57;;;4.47;;
819;SDS011;392;48.838;2.322;2022-08-24T17:09:19;4.33;;;4.23;;
819;SDS011;392;48.838;2.322;2022-08-24T17:11:47;5.30;;;5.00;;
819;SDS011;392;48.838;2.322;2022-08-24T17:14:15;5.13;;;4.93;;
819;SDS011;392;48.838;2.322;2022-08-24T17:16:43;4.50;;;4.30;;
819;SDS011;392;48.838;2.322;2022-08-24T17:19:12;4.20;;;4.10;;
819;SDS011;392;48.838;2.322;2022-08-24T17:21:43;4.57;;;4.47;;
819;SDS011;392;48.838;2.322;2022-08-24T17:24:11;4.53;;;4.43;;
819;SDS011;392;48.838;2.322;2022-08-24T17:26:40;5.10;;;4.90;;
819;SDS011;392;48.838;2.322;2022-08-24T17:29:08;4.80;;;4.63;;